sensor_id;sensor_type;location;lat;lon;timestamp;pressure;altitude;pressure_sealevel;temperature;humidity
28000;BME280;15328;50.860;10.562;2023-05-19T00:04:38;97368.06;;;11.05;48.55
28000;BME280;15328;50.860;10.562;2023-05-19T00:09:39;97366.03;;;11.07;48.79
28000;BME280;15328;50.860;10.562;2023-05-19T00:14:40;97361.09;;;11.04;49.19
28000;BME280;15328;50.860;10.562;2023-05-19T00:19:44;97356.19;;;11.01;48.78
28000;BME280;15328;50.860;10.562;2023-05-19T00:24:45;97348.34;;;10.93;49.05
28000;BME280;15328;50.860;10.562;2023-05-19T00:29:46;97355.50;;;10.93;49.27
28000;BME280;15328;50.860;10.562;2023-05-19T00:34:46;97355.28;;;10.88;48.38
28000;BME280;15328;50.860;10.562;2023-05-19T00:39:48;97346.47;;;10.87;49.05
28000;BME280;15328;50.860;10.562;2023-05-19T00:44:48;97348.94;;;10.89;49.24
28000;BME280;15328;50.860;10.562;2023-05-19T00:49:48;97344.63;;;10.88;49.27
28000;BME280;15328;50.860;10.562;2023-05-19T00:54:50;97338.50;;;10.87;49.38
28000;BME280;15328;50.860;10.562;2023-05-19T00:59:50;97343.97;;;10.72;49.82
28000;BME280;15328;50.860;10.562;2023-05-19T01:04:51;97346.22;;;10.75;49.80
28000;BME280;15328;50.860;10.562;2023-05-19T01:09:52;97339.47;;;10.79;49.86
28000;BME280;15328;50.860;10.562;2023-05-19T01:14:53;97337.84;;;10.78;49.72
28000;BME280;15328;50.860;10.562;2023-05-19T01:20:09;97333.94;;;10.74;50.79
28000;BME280;15328;50.860;10.562;2023-05-19T01:30:51;97331.91;;;10.76;50.13
28000;BME280;15328;50.860;10.562;2023-05-19T01:35:52;97330.44;;;10.74;50.68
28000;BME280;15328;50.860;10.562;2023-05-19T01:40:55;97332.44;;;10.65;50.17
28000;BME280;15328;50.860;10.562;2023-05-19T01:45:56;97338.56;;;10.66;50.63
28000;BME280;15328;50.860;10.562;2023-05-19T01:50:58;97334.06;;;10.66;50.79
28000;BME280;15328;50.860;10.562;2023-05-19T01:55:58;97337.69;;;10.52;51.71
28000;BME280;15328;50.860;10.562;2023-05-19T02:01:29;97333.59;;;10.49;52.25
28000;BME280;15328;50.860;10.562;2023-05-19T02:12:02;97322.09;;;10.42;52.05
28000;BME280;15328;50.860;10.562;2023-05-19T02:17:05;97319.84;;;10.46;52.60
28000;BME280;15328;50.860;10.562;2023-05-19T02:22:05;97318.22;;;10.45;51.83
28000;BME280;15328;50.860;10.562;2023-05-19T02:27:06;97323.34;;;10.46;51.60
28000;BME280;15328;50.860;10.562;2023-05-19T02:32:06;97313.94;;;10.50;51.11
28000;BME280;15328;50.860;10.562;2023-05-19T02:37:07;97316.56;;;10.44;51.81
28000;BME280;15328;50.860;10.562;2023-05-19T02:42:07;97321.00;;;10.37;51.98
28000;BME280;15328;50.860;10.562;2023-05-19T02:47:07;97317.41;;;10.44;52.34
28000;BME280;15328;50.860;10.562;2023-05-19T02:52:08;97305.03;;;10.37;52.18
28000;BME280;15328;50.860;10.562;2023-05-19T02:57:08;97304.84;;;10.38;52.44
28000;BME280;15328;50.860;10.562;2023-05-19T03:02:10;97308.09;;;10.34;51.70
28000;BME280;15328;50.860;10.562;2023-05-19T03:07:10;97302.19;;;10.38;52.45
28000;BME280;15328;50.860;10.562;2023-05-19T03:12:12;97300.50;;;10.31;52.49
28000;BME280;15328;50.860;10.562;2023-05-19T03:17:12;97303.13;;;10.24;52.72
28000;BME280;15328;50.860;10.562;2023-05-19T03:22:13;97303.47;;;10.14;53.06
28000;BME280;15328;50.860;10.562;2023-05-19T03:27:13;97303.34;;;10.23;53.27
28000;BME280;15328;50.860;10.562;2023-05-19T03:32:13;97301.16;;;10.11;53.38
28000;BME280;15328;50.860;10.562;2023-05-19T03:37:14;97304.16;;;10.02;53.63
28000;BME280;15328;50.860;10.562;2023-05-19T03:42:14;97310.34;;;10.09;53.17
28000;BME280;15328;50.860;10.562;2023-05-19T03:47:15;97308.94;;;10.13;53.64
28000;BME280;15328;50.860;10.562;2023-05-19T03:52:15;97310.94;;;10.04;53.87
28000;BME280;15328;50.860;10.562;2023-05-19T03:57:16;97315.66;;;10.09;53.86
28000;BME280;15328;50.860;10.562;2023-05-19T04:02:16;97310.78;;;10.12;53.09
28000;BME280;15328;50.860;10.562;2023-05-19T04:07:16;97309.72;;;10.07;53.48
28000;BME280;15328;50.860;10.562;2023-05-19T04:12:17;97313.19;;;10.07;52.98
28000;BME280;15328;50.860;10.562;2023-05-19T04:17:17;97319.84;;;10.18;53.29
28000;BME280;15328;50.860;10.562;2023-05-19T04:22:17;97318.28;;;10.24;52.98
28000;BME280;15328;50.860;10.562;2023-05-19T04:27:18;97323.63;;;10.30;52.82
28000;BME280;15328;50.860;10.562;2023-05-19T04:32:18;97316.78;;;10.42;52.36
28000;BME280;15328;50.860;10.562;2023-05-19T04:37:18;97324.19;;;10.53;51.78
28000;BME280;15328;50.860;10.562;2023-05-19T04:42:19;97325.75;;;10.76;51.72
28000;BME280;15328;50.860;10.562;2023-05-19T04:47:19;97333.78;;;10.89;50.68
28000;BME280;15328;50.860;10.562;2023-05-19T04:52:20;97332.84;;;11.03;51.10
28000;BME280;15328;50.860;10.562;2023-05-19T04:57:21;97323.22;;;11.02;50.29
28000;BME280;15328;50.860;10.562;2023-05-19T05:02:22;97324.25;;;11.08;50.42
28000;BME280;15328;50.860;10.562;2023-05-19T05:07:22;97316.66;;;10.98;50.55
28000;BME280;15328;50.860;10.562;2023-05-19T05:12:23;97318.91;;;11.08;50.56
28000;BME280;15328;50.860;10.562;2023-05-19T05:17:23;97326.13;;;11.21;51.15
28000;BME280;15328;50.860;10.562;2023-05-19T05:22:25;97323.47;;;11.21;50.96
28000;BME280;15328;50.860;10.562;2023-05-19T05:27:25;97313.09;;;11.45;49.97
28000;BME280;15328;50.860;10.562;2023-05-19T05:32:26;97325.22;;;11.55;49.13
28000;BME280;15328;50.860;10.562;2023-05-19T05:37:26;97317.38;;;11.46;48.42
28000;BME280;15328;50.860;10.562;2023-05-19T05:42:26;97322.31;;;11.50;48.74
28000;BME280;15328;50.860;10.562;2023-05-19T05:47:27;97327.88;;;11.55;48.88
28000;BME280;15328;50.860;10.562;2023-05-19T05:52:29;97330.56;;;11.74;48.63
28000;BME280;15328;50.860;10.562;2023-05-19T05:57:29;97336.16;;;11.86;48.27
28000;BME280;15328;50.860;10.562;2023-05-19T06:02:30;97328.34;;;11.98;47.95
28000;BME280;15328;50.860;10.562;2023-05-19T06:07:30;97327.34;;;12.12;48.29
28000;BME280;15328;50.860;10.562;2023-05-19T06:12:31;97339.84;;;12.18;47.73
28000;BME280;15328;50.860;10.562;2023-05-19T06:17:31;97336.16;;;12.06;46.86
28000;BME280;15328;50.860;10.562;2023-05-19T06:22:34;97334.53;;;12.12;47.25
28000;BME280;15328;50.860;10.562;2023-05-19T06:27:35;97329.59;;;12.15;47.75
28000;BME280;15328;50.860;10.562;2023-05-19T06:32:35;97328.75;;;12.28;47.21
28000;BME280;15328;50.860;10.562;2023-05-19T06:37:35;97326.28;;;12.40;47.00
28000;BME280;15328;50.860;10.562;2023-05-19T06:42:36;97322.56;;;12.47;47.22
28000;BME280;15328;50.860;10.562;2023-05-19T06:47:36;97324.00;;;12.63;47.06
28000;BME280;15328;50.860;10.562;2023-05-19T06:52:36;97337.28;;;12.89;46.30
28000;BME280;15328;50.860;10.562;2023-05-19T06:57:37;97333.53;;;12.97;45.86
28000;BME280;15328;50.860;10.562;2023-05-19T07:02:38;97327.63;;;12.88;45.90
28000;BME280;15328;50.860;10.562;2023-05-19T07:07:38;97325.31;;;12.98;45.37
28000;BME280;15328;50.860;10.562;2023-05-19T07:12:38;97326.31;;;13.17;45.83
28000;BME280;15328;50.860;10.562;2023-05-19T07:17:39;97329.53;;;13.26;45.48
28000;BME280;15328;50.860;10.562;2023-05-19T07:22:39;97325.31;;;13.50;46.07
28000;BME280;15328;50.860;10.562;2023-05-19T07:27:39;97321.06;;;13.67;45.51
28000;BME280;15328;50.860;10.562;2023-05-19T07:32:40;97323.50;;;13.75;44.29
28000;BME280;15328;50.860;10.562;2023-05-19T07:37:40;97321.53;;;13.89;45.66
28000;BME280;15328;50.860;10.562;2023-05-19T07:42:40;97326.03;;;14.20;45.42
28000;BME280;15328;50.860;10.562;2023-05-19T07:47:41;97327.34;;;14.36;44.37
28000;BME280;15328;50.860;10.562;2023-05-19T07:52:41;97308.59;;;14.61;44.68
28000;BME280;15328;50.860;10.562;2023-05-19T07:57:42;97307.94;;;14.83;43.56
28000;BME280;15328;50.860;10.562;2023-05-19T08:02:43;97316.13;;;15.07;43.69
28000;BME280;15328;50.860;10.562;2023-05-19T08:07:46;97312.69;;;15.00;42.50
28000;BME280;15328;50.860;10.562;2023-05-19T08:12:46;97315.97;;;15.02;42.13
28000;BME280;15328;50.860;10.562;2023-05-19T08:17:47;97310.78;;;15.07;42.04
28000;BME280;15328;50.860;10.562;2023-05-19T08:22:47;97310.28;;;15.28;42.41
28000;BME280;15328;50.860;10.562;2023-05-19T08:27:47;97291.59;;;15.52;42.83
28000;BME280;15328;50.860;10.562;2023-05-19T08:32:48;97296.72;;;15.71;41.46
28000;BME280;15328;50.860;10.562;2023-05-19T08:37:48;97280.97;;;15.87;40.09
28000;BME280;15328;50.860;10.562;2023-05-19T08:42:49;97290.31;;;15.84;40.44
28000;BME280;15328;50.860;10.562;2023-05-19T08:47:49;97286.31;;;16.17;41.99
28000;BME280;15328;50.860;10.562;2023-05-19T08:52:52;97285.94;;;16.48;41.31
28000;BME280;15328;50.860;10.562;2023-05-19T08:57:55;97277.09;;;16.71;41.01
28000;BME280;15328;50.860;10.562;2023-05-19T09:02:55;97284.19;;;16.54;40.16
28000;BME280;15328;50.860;10.562;2023-05-19T09:07:56;97273.44;;;16.54;39.44
28000;BME280;15328;50.860;10.562;2023-05-19T09:13:00;97264.38;;;16.95;40.59
28000;BME280;15328;50.860;10.562;2023-05-19T09:18:08;97259.59;;;17.25;39.20
28000;BME280;15328;50.860;10.562;2023-05-19T09:23:17;97256.16;;;17.42;38.92
28000;BME280;15328;50.860;10.562;2023-05-19T09:33:24;97273.72;;;17.61;38.37
28000;BME280;15328;50.860;10.562;2023-05-19T09:38:25;97272.03;;;17.55;38.64
28000;BME280;15328;50.860;10.562;2023-05-19T09:43:29;97256.97;;;17.71;38.63
28000;BME280;15328;50.860;10.562;2023-05-19T09:48:30;97259.22;;;17.62;38.92
28000;BME280;15328;50.860;10.562;2023-05-19T09:53:33;97260.00;;;18.08;38.88
28000;BME280;15328;50.860;10.562;2023-05-19T09:58:40;97255.72;;;18.62;38.51
28000;BME280;15328;50.860;10.562;2023-05-19T10:03:41;97255.94;;;18.99;35.74
28000;BME280;15328;50.860;10.562;2023-05-19T10:08:42;97255.00;;;19.37;35.15
28000;BME280;15328;50.860;10.562;2023-05-19T10:13:44;97253.56;;;19.79;33.45
28000;BME280;15328;50.860;10.562;2023-05-19T10:18:46;97250.00;;;20.05;31.92
28000;BME280;15328;50.860;10.562;2023-05-19T10:23:46;97249.53;;;20.18;31.91
28000;BME280;15328;50.860;10.562;2023-05-19T10:28:47;97249.66;;;20.33;31.51
28000;BME280;15328;50.860;10.562;2023-05-19T10:39:21;97231.00;;;20.74;31.10
28000;BME280;15328;50.860;10.562;2023-05-19T10:49:33;97226.25;;;20.07;30.70
28000;BME280;15328;50.860;10.562;2023-05-19T10:54:39;97233.88;;;20.15;30.33
28000;BME280;15328;50.860;10.562;2023-05-19T10:59:40;97218.41;;;20.43;31.21
28000;BME280;15328;50.860;10.562;2023-05-19T11:04:45;97221.72;;;20.55;30.77
28000;BME280;15328;50.860;10.562;2023-05-19T11:09:52;97219.84;;;20.55;30.36
28000;BME280;15328;50.860;10.562;2023-05-19T11:14:54;97221.00;;;20.80;30.60
28000;BME280;15328;50.860;10.562;2023-05-19T11:19:56;97219.19;;;20.95;30.30
28000;BME280;15328;50.860;10.562;2023-05-19T11:24:59;97213.25;;;20.93;29.05
28000;BME280;15328;50.860;10.562;2023-05-19T11:30:07;97209.75;;;21.08;29.42
28000;BME280;15328;50.860;10.562;2023-05-19T11:35:18;97202.97;;;21.01;28.96
28000;BME280;15328;50.860;10.562;2023-05-19T11:40:20;97203.66;;;20.65;29.89
28000;BME280;15328;50.860;10.562;2023-05-19T11:45:24;97208.63;;;20.84;30.40
28000;BME280;15328;50.860;10.562;2023-05-19T11:50:25;97210.00;;;21.02;30.51
28000;BME280;15328;50.860;10.562;2023-05-19T11:55:26;97207.56;;;21.00;30.74
28000;BME280;15328;50.860;10.562;2023-05-19T12:00:28;97201.97;;;21.17;30.78
28000;BME280;15328;50.860;10.562;2023-05-19T12:05:29;97204.50;;;20.76;28.47
28000;BME280;15328;50.860;10.562;2023-05-19T12:10:31;97193.13;;;20.69;28.86
28000;BME280;15328;50.860;10.562;2023-05-19T12:15:33;97184.94;;;20.49;28.41
28000;BME280;15328;50.860;10.562;2023-05-19T12:20:33;97205.25;;;20.19;28.33
28000;BME280;15328;50.860;10.562;2023-05-19T12:25:36;97188.25;;;19.82;28.51
28000;BME280;15328;50.860;10.562;2023-05-19T12:30:37;97193.06;;;19.74;29.40
28000;BME280;15328;50.860;10.562;2023-05-19T12:35:38;97194.84;;;19.64;30.08
28000;BME280;15328;50.860;10.562;2023-05-19T12:40:38;97189.38;;;19.27;28.38
28000;BME280;15328;50.860;10.562;2023-05-19T12:45:39;97199.16;;;19.11;30.24
28000;BME280;15328;50.860;10.562;2023-05-19T12:50:42;97197.03;;;19.40;30.55
28000;BME280;15328;50.860;10.562;2023-05-19T12:55:44;97189.16;;;19.33;30.85
28000;BME280;15328;50.860;10.562;2023-05-19T13:00:45;97185.66;;;19.60;31.54
28000;BME280;15328;50.860;10.562;2023-05-19T13:05:50;97187.22;;;19.56;29.42
28000;BME280;15328;50.860;10.562;2023-05-19T13:10:50;97185.22;;;19.73;28.45
28000;BME280;15328;50.860;10.562;2023-05-19T13:15:51;97189.81;;;19.72;28.59
28000;BME280;15328;50.860;10.562;2023-05-19T13:20:51;97189.13;;;19.55;29.51
28000;BME280;15328;50.860;10.562;2023-05-19T13:25:53;97192.97;;;19.37;30.95
28000;BME280;15328;50.860;10.562;2023-05-19T13:30:53;97179.50;;;19.42;31.72
28000;BME280;15328;50.860;10.562;2023-05-19T13:35:54;97180.47;;;19.53;32.18
28000;BME280;15328;50.860;10.562;2023-05-19T13:40:55;97171.50;;;19.48;31.81
28000;BME280;15328;50.860;10.562;2023-05-19T13:45:56;97176.22;;;19.35;32.34
28000;BME280;15328;50.860;10.562;2023-05-19T13:50:56;97176.56;;;19.17;32.58
28000;BME280;15328;50.860;10.562;2023-05-19T13:55:56;97169.25;;;19.12;32.49
28000;BME280;15328;50.860;10.562;2023-05-19T14:00:57;97170.84;;;18.87;33.06
28000;BME280;15328;50.860;10.562;2023-05-19T14:05:59;97166.63;;;18.30;32.08
28000;BME280;15328;50.860;10.562;2023-05-19T14:10:59;97165.56;;;18.31;32.73
28000;BME280;15328;50.860;10.562;2023-05-19T14:15:59;97174.31;;;18.21;32.96
28000;BME280;15328;50.860;10.562;2023-05-19T14:21:00;97165.13;;;18.17;33.47
28000;BME280;15328;50.860;10.562;2023-05-19T14:26:03;97155.44;;;18.00;32.73
28000;BME280;15328;50.860;10.562;2023-05-19T14:31:04;97166.63;;;18.08;33.16
28000;BME280;15328;50.860;10.562;2023-05-19T14:36:05;97162.00;;;18.26;33.61
28000;BME280;15328;50.860;10.562;2023-05-19T14:41:06;97165.06;;;18.34;32.91
28000;BME280;15328;50.860;10.562;2023-05-19T14:46:06;97169.41;;;18.35;33.22
28000;BME280;15328;50.860;10.562;2023-05-19T14:51:06;97158.56;;;18.30;33.85
28000;BME280;15328;50.860;10.562;2023-05-19T14:56:10;97173.66;;;18.31;33.63
28000;BME280;15328;50.860;10.562;2023-05-19T15:01:10;97161.00;;;18.10;33.80
28000;BME280;15328;50.860;10.562;2023-05-19T15:06:10;97155.59;;;18.10;34.00
28000;BME280;15328;50.860;10.562;2023-05-19T15:11:11;97151.84;;;18.11;33.87
28000;BME280;15328;50.860;10.562;2023-05-19T15:16:11;97145.50;;;17.67;33.26
28000;BME280;15328;50.860;10.562;2023-05-19T15:21:11;97136.53;;;17.78;33.87
28000;BME280;15328;50.860;10.562;2023-05-19T15:26:12;97130.34;;;17.77;34.15
28000;BME280;15328;50.860;10.562;2023-05-19T15:31:12;97120.06;;;17.74;34.74
28000;BME280;15328;50.860;10.562;2023-05-19T15:36:13;97122.78;;;17.74;34.87
28000;BME280;15328;50.860;10.562;2023-05-19T15:41:15;97122.13;;;17.84;34.77
28000;BME280;15328;50.860;10.562;2023-05-19T15:46:15;97124.38;;;17.92;35.17
28000;BME280;15328;50.860;10.562;2023-05-19T15:51:18;97124.16;;;17.77;34.57
28000;BME280;15328;50.860;10.562;2023-05-19T15:56:19;97121.38;;;17.72;34.56
28000;BME280;15328;50.860;10.562;2023-05-19T16:01:20;97121.22;;;17.78;34.71
28000;BME280;15328;50.860;10.562;2023-05-19T16:06:21;97120.00;;;17.86;35.25
28000;BME280;15328;50.860;10.562;2023-05-19T16:11:21;97118.16;;;18.08;35.24
28000;BME280;15328;50.860;10.562;2023-05-19T16:16:23;97115.13;;;18.05;35.22
28000;BME280;15328;50.860;10.562;2023-05-19T16:21:23;97113.75;;;18.02;35.33
28000;BME280;15328;50.860;10.562;2023-05-19T16:26:24;97110.19;;;17.97;36.13
28000;BME280;15328;50.860;10.562;2023-05-19T16:31:25;97101.41;;;18.06;36.16
28000;BME280;15328;50.860;10.562;2023-05-19T16:36:25;97101.25;;;18.13;35.96
28000;BME280;15328;50.860;10.562;2023-05-19T16:41:26;97099.13;;;18.15;36.36
28000;BME280;15328;50.860;10.562;2023-05-19T16:46:26;97094.88;;;18.19;36.66
28000;BME280;15328;50.860;10.562;2023-05-19T16:51:27;97102.88;;;18.14;36.45
28000;BME280;15328;50.860;10.562;2023-05-19T16:56:27;97103.56;;;18.26;36.14
28000;BME280;15328;50.860;10.562;2023-05-19T17:01:27;97094.94;;;18.24;36.08
28000;BME280;15328;50.860;10.562;2023-05-19T17:06:28;97107.88;;;18.05;35.93
28000;BME280;15328;50.860;10.562;2023-05-19T17:11:28;97102.13;;;17.80;36.39
28000;BME280;15328;50.860;10.562;2023-05-19T17:16:28;97095.78;;;17.69;36.93
28000;BME280;15328;50.860;10.562;2023-05-19T17:21:29;97090.31;;;17.64;37.24
28000;BME280;15328;50.860;10.562;2023-05-19T17:26:31;97089.69;;;17.57;36.90
28000;BME280;15328;50.860;10.562;2023-05-19T17:31:31;97087.25;;;17.39;36.90
28000;BME280;15328;50.860;10.562;2023-05-19T17:36:32;97091.97;;;17.32;37.41
28000;BME280;15328;50.860;10.562;2023-05-19T17:41:32;97093.03;;;17.30;37.13
28000;BME280;15328;50.860;10.562;2023-05-19T17:46:32;97094.09;;;17.29;37.59
28000;BME280;15328;50.860;10.562;2023-05-19T17:51:38;97093.97;;;17.24;37.86
28000;BME280;15328;50.860;10.562;2023-05-19T17:56:40;97095.53;;;17.20;38.43
28000;BME280;15328;50.860;10.562;2023-05-19T18:01:43;97093.66;;;17.04;38.54
28000;BME280;15328;50.860;10.562;2023-05-19T18:06:44;97095.25;;;16.88;38.66
28000;BME280;15328;50.860;10.562;2023-05-19T18:11:45;97096.22;;;16.82;39.52
28000;BME280;15328;50.860;10.562;2023-05-19T18:16:45;97089.47;;;16.80;39.68
28000;BME280;15328;50.860;10.562;2023-05-19T18:21:47;97096.63;;;16.62;40.80
28000;BME280;15328;50.860;10.562;2023-05-19T18:26:47;97106.06;;;16.36;41.60
28000;BME280;15328;50.860;10.562;2023-05-19T18:31:48;97100.94;;;16.35;41.72
28000;BME280;15328;50.860;10.562;2023-05-19T18:36:48;97102.69;;;16.29;42.11
28000;BME280;15328;50.860;10.562;2023-05-19T18:41:48;97100.41;;;16.10;42.53
28000;BME280;15328;50.860;10.562;2023-05-19T18:46:49;97101.94;;;16.05;43.05
28000;BME280;15328;50.860;10.562;2023-05-19T18:51:50;97102.28;;;16.09;43.23
28000;BME280;15328;50.860;10.562;2023-05-19T18:56:50;97101.56;;;16.14;43.56
28000;BME280;15328;50.860;10.562;2023-05-19T19:01:54;97116.63;;;16.03;43.95
28000;BME280;15328;50.860;10.562;2023-05-19T19:06:54;97112.94;;;15.92;44.46
28000;BME280;15328;50.860;10.562;2023-05-19T19:11:54;97116.53;;;15.86;44.38
28000;BME280;15328;50.860;10.562;2023-05-19T19:16:55;97122.50;;;15.76;44.77
28000;BME280;15328;50.860;10.562;2023-05-19T19:21:55;97126.56;;;15.79;44.68
28000;BME280;15328;50.860;10.562;2023-05-19T19:26:56;97139.50;;;15.82;44.91
28000;BME280;15328;50.860;10.562;2023-05-19T19:31:59;97134.16;;;15.82;45.25
28000;BME280;15328;50.860;10.562;2023-05-19T19:37:07;97150.03;;;15.72;45.16
28000;BME280;15328;50.860;10.562;2023-05-19T19:42:27;97144.19;;;15.63;45.20
28000;BME280;15328;50.860;10.562;2023-05-19T19:47:34;97150.13;;;15.65;45.48
28000;BME280;15328;50.860;10.562;2023-05-19T19:52:37;97149.06;;;15.78;45.77
28000;BME280;15328;50.860;10.562;2023-05-19T19:57:58;97148.38;;;15.83;45.37
28000;BME280;15328;50.860;10.562;2023-05-19T20:03:04;97147.34;;;15.72;45.63
28000;BME280;15328;50.860;10.562;2023-05-19T20:08:05;97152.59;;;15.67;45.44
28000;BME280;15328;50.860;10.562;2023-05-19T20:13:05;97151.84;;;15.60;46.04
28000;BME280;15328;50.860;10.562;2023-05-19T20:18:06;97151.59;;;15.50;46.20
28000;BME280;15328;50.860;10.562;2023-05-19T20:23:07;97162.44;;;15.55;46.07
28000;BME280;15328;50.860;10.562;2023-05-19T20:28:07;97163.41;;;15.60;46.34
28000;BME280;15328;50.860;10.562;2023-05-19T20:33:08;97159.91;;;15.60;46.03
28000;BME280;15328;50.860;10.562;2023-05-19T20:38:08;97161.28;;;15.51;46.62
28000;BME280;15328;50.860;10.562;2023-05-19T20:43:09;97151.94;;;15.41;46.64
28000;BME280;15328;50.860;10.562;2023-05-19T20:48:09;97152.25;;;15.33;47.16
28000;BME280;15328;50.860;10.562;2023-05-19T20:53:10;97159.06;;;15.36;47.01
28000;BME280;15328;50.860;10.562;2023-05-19T20:58:10;97156.84;;;15.44;47.11
28000;BME280;15328;50.860;10.562;2023-05-19T21:03:11;97146.69;;;15.35;47.57
28000;BME280;15328;50.860;10.562;2023-05-19T21:08:11;97156.31;;;15.24;47.69
28000;BME280;15328;50.860;10.562;2023-05-19T21:13:11;97155.03;;;15.15;47.91
28000;BME280;15328;50.860;10.562;2023-05-19T21:18:12;97149.78;;;15.08;48.06
28000;BME280;15328;50.860;10.562;2023-05-19T21:23:12;97151.06;;;15.18;47.99
28000;BME280;15328;50.860;10.562;2023-05-19T21:28:13;97144.53;;;15.13;48.15
28000;BME280;15328;50.860;10.562;2023-05-19T21:33:13;97152.31;;;15.03;48.46
28000;BME280;15328;50.860;10.562;2023-05-19T21:38:13;97159.69;;;15.08;48.46
28000;BME280;15328;50.860;10.562;2023-05-19T21:43:14;97154.75;;;15.05;48.90
28000;BME280;15328;50.860;10.562;2023-05-19T21:48:15;97159.72;;;14.90;49.00
28000;BME280;15328;50.860;10.562;2023-05-19T21:53:15;97161.69;;;14.82;49.81
28000;BME280;15328;50.860;10.562;2023-05-19T21:58:15;97166.97;;;14.71;50.05
28000;BME280;15328;50.860;10.562;2023-05-19T22:03:16;97173.72;;;14.73;50.29
28000;BME280;15328;50.860;10.562;2023-05-19T22:08:17;97167.09;;;14.76;50.61
28000;BME280;15328;50.860;10.562;2023-05-19T22:13:18;97166.13;;;14.89;49.98
28000;BME280;15328;50.860;10.562;2023-05-19T22:18:19;97156.03;;;14.72;50.30
28000;BME280;15328;50.860;10.562;2023-05-19T22:23:19;97163.72;;;14.69;50.50
28000;BME280;15328;50.860;10.562;2023-05-19T22:28:20;97162.28;;;14.66;50.92
28000;BME280;15328;50.860;10.562;2023-05-19T22:33:20;97154.72;;;14.63;51.43
28000;BME280;15328;50.860;10.562;2023-05-19T22:38:20;97168.34;;;14.62;50.96
28000;BME280;15328;50.860;10.562;2023-05-19T22:43:21;97157.13;;;14.53;51.89
28000;BME280;15328;50.860;10.562;2023-05-19T22:48:21;97153.16;;;14.37;51.97
28000;BME280;15328;50.860;10.562;2023-05-19T22:53:21;97159.41;;;14.31;52.32
28000;BME280;15328;50.860;10.562;2023-05-19T22:58:22;97156.06;;;14.36;52.38
28000;BME280;15328;50.860;10.562;2023-05-19T23:03:22;97152.19;;;14.32;52.98
28000;BME280;15328;50.860;10.562;2023-05-19T23:08:22;97155.09;;;14.30;52.96
28000;BME280;15328;50.860;10.562;2023-05-19T23:13:22;97158.06;;;14.22;53.18
28000;BME280;15328;50.860;10.562;2023-05-19T23:18:23;97153.31;;;14.06;53.74
28000;BME280;15328;50.860;10.562;2023-05-19T23:23:23;97154.19;;;14.00;53.71
28000;BME280;15328;50.860;10.562;2023-05-19T23:28:23;97152.13;;;14.02;53.92
28000;BME280;15328;50.860;10.562;2023-05-19T23:33:24;97145.72;;;14.03;53.53
28000;BME280;15328;50.860;10.562;2023-05-19T23:38:27;97147.72;;;14.07;54.14
28000;BME280;15328;50.860;10.562;2023-05-19T23:43:27;97132.84;;;13.93;54.65
28000;BME280;15328;50.860;10.562;2023-05-19T23:48:29;97140.00;;;13.99;54.20
28000;BME280;15328;50.860;10.562;2023-05-19T23:53:30;97140.75;;;14.06;53.79
28000;BME280;15328;50.860;10.562;2023-05-19T23:58:30;97142.84;;;14.04;54.10
